VOE65ND LEAS-LEVC
Flight info
| Callsign | VOE65ND |
|---|---|
| Flight time | 1h 2m |
| Altitude | 33000 |
| Route | KUVAN Y27 LARVO DCT ZMR DCT PDT M871 NANDO T257 MABUX |
| Aircraft | A320/M-SDFGHIJ1RWY/LB1 |
Departure
| Time | 2026-05-08 14:16 |
|---|---|
| Airport | Asturias Airport (LEAS) |
Arrival
| Time | 2026-05-08 15:19 |
|---|---|
| Airport | Valencia Airport (LEVC) |
| Time | Latitude | Longitude | Altitude | Speed | Heading |
|---|---|---|---|---|---|
| 2026-05-08 14:02 | 43.55971 | -6.03108 | 426 ft | 0 kts | 245° |
| 2026-05-08 14:12 | 43.55971 | -6.03111 | 426 ft | 2 kts | 247° |
| 2026-05-08 14:12 | 43.55977 | -6.03118 | 419 ft | 2 kts | 321° |
| 2026-05-08 14:13 | 43.56000 | -6.03111 | 422 ft | 5 kts | 30° |
| 2026-05-08 14:13 | 43.56015 | -6.03051 | 426 ft | 8 kts | 103° |
| 2026-05-08 14:13 | 43.55999 | -6.02980 | 424 ft | 7 kts | 108° |
| 2026-05-08 14:13 | 43.56014 | -6.02909 | 422 ft | 11 kts | 24° |
| 2026-05-08 14:14 | 43.56042 | -6.02833 | 424 ft | 9 kts | 105° |
| 2026-05-08 14:14 | 43.56022 | -6.02748 | 413 ft | 10 kts | 108° |
| 2026-05-08 14:14 | 43.55997 | -6.02642 | 422 ft | 13 kts | 108° |
| 2026-05-08 14:14 | 43.55967 | -6.02510 | 423 ft | 13 kts | 108° |
| 2026-05-08 14:15 | 43.55945 | -6.02406 | 421 ft | 10 kts | 98° |
| 2026-05-08 14:15 | 43.55960 | -6.02331 | 426 ft | 8 kts | 65° |
| 2026-05-08 14:15 | 43.55989 | -6.02245 | 424 ft | 12 kts | 61° |
| 2026-05-08 14:15 | 43.56062 | -6.02224 | 421 ft | 12 kts | 311° |
| 2026-05-08 14:16 | 43.56098 | -6.02371 | 417 ft | 35 kts | 288° |
| 2026-05-08 14:16 | 43.56258 | -6.03042 | 419 ft | 109 kts | 288° |
| 2026-05-08 14:16 | 43.56557 | -6.04309 | 466 ft | 161 kts | 288° |
| 2026-05-08 14:16 | 43.56901 | -6.05772 | 1127 ft | 160 kts | 288° |
| 2026-05-08 14:17 | 43.57249 | -6.07232 | 1878 ft | 160 kts | 289° |
| 2026-05-08 14:17 | 43.57603 | -6.08717 | 2463 ft | 171 kts | 288° |
| 2026-05-08 14:17 | 43.57994 | -6.10379 | 2757 ft | 193 kts | 287° |
| 2026-05-08 14:17 | 43.58432 | -6.12250 | 3029 ft | 216 kts | 287° |
| 2026-05-08 14:18 | 43.58903 | -6.14259 | 3681 ft | 222 kts | 286° |
| 2026-05-08 14:18 | 43.59203 | -6.16336 | 4457 ft | 221 kts | 261° |
| 2026-05-08 14:18 | 43.58574 | -6.18195 | 5182 ft | 217 kts | 220° |
| 2026-05-08 14:18 | 43.57252 | -6.19157 | 5957 ft | 217 kts | 200° |
| 2026-05-08 14:19 | 43.55754 | -6.19732 | 6442 ft | 234 kts | 193° |
| 2026-05-08 14:19 | 43.54079 | -6.20217 | 6817 ft | 256 kts | 193° |
| 2026-05-08 14:19 | 43.52301 | -6.20697 | 7520 ft | 263 kts | 192° |
| 2026-05-08 14:19 | 43.50501 | -6.21173 | 8360 ft | 265 kts | 192° |
| 2026-05-08 14:20 | 43.48674 | -6.21653 | 9201 ft | 268 kts | 191° |
| 2026-05-08 14:20 | 43.46836 | -6.22137 | 10045 ft | 271 kts | 191° |
| 2026-05-08 14:20 | 43.44918 | -6.22649 | 10431 ft | 292 kts | 191° |
| 2026-05-08 14:20 | 43.42847 | -6.23204 | 10791 ft | 312 kts | 191° |
| 2026-05-08 14:21 | 43.40695 | -6.23777 | 11466 ft | 318 kts | 190° |
| 2026-05-08 14:21 | 43.38508 | -6.24359 | 12165 ft | 322 kts | 190° |
| 2026-05-08 14:21 | 43.36310 | -6.24947 | 12890 ft | 325 kts | 189° |
| 2026-05-08 14:21 | 43.34066 | -6.25551 | 13621 ft | 329 kts | 189° |
| 2026-05-08 14:22 | 43.31814 | -6.26157 | 14286 ft | 331 kts | 189° |
| 2026-05-08 14:22 | 43.29538 | -6.26768 | 14734 ft | 335 kts | 189° |
| 2026-05-08 14:22 | 43.27245 | -6.27383 | 14850 ft | 335 kts | 189° |
| 2026-05-08 14:22 | 43.24950 | -6.27997 | 15004 ft | 338 kts | 189° |
| 2026-05-08 14:23 | 43.22645 | -6.28615 | 15736 ft | 338 kts | 189° |
| 2026-05-08 14:23 | 43.20332 | -6.29234 | 16420 ft | 340 kts | 189° |
| 2026-05-08 14:23 | 43.18004 | -6.29854 | 17069 ft | 342 kts | 189° |
| 2026-05-08 14:23 | 43.15658 | -6.30478 | 17729 ft | 344 kts | 189° |
| 2026-05-08 14:24 | 43.13290 | -6.31069 | 18271 ft | 347 kts | 185° |
| 2026-05-08 14:24 | 43.10879 | -6.31141 | 18786 ft | 349 kts | 174° |
| 2026-05-08 14:24 | 43.08489 | -6.30539 | 19313 ft | 351 kts | 163° |
| 2026-05-08 14:24 | 43.06160 | -6.29500 | 19836 ft | 354 kts | 162° |
| 2026-05-08 14:25 | 43.03808 | -6.28444 | 20347 ft | 358 kts | 162° |
| 2026-05-08 14:25 | 43.01432 | -6.27385 | 20868 ft | 362 kts | 162° |
| 2026-05-08 14:25 | 42.99021 | -6.26316 | 21383 ft | 365 kts | 163° |
| 2026-05-08 14:25 | 42.96597 | -6.25242 | 21910 ft | 369 kts | 163° |
| 2026-05-08 14:26 | 42.94177 | -6.24167 | 22398 ft | 372 kts | 163° |
| 2026-05-08 14:26 | 42.91705 | -6.23068 | 22884 ft | 376 kts | 163° |
| 2026-05-08 14:26 | 42.89210 | -6.21961 | 23357 ft | 379 kts | 163° |
| 2026-05-08 14:26 | 42.86689 | -6.20847 | 23774 ft | 382 kts | 163° |
| 2026-05-08 14:27 | 42.84151 | -6.19728 | 24167 ft | 385 kts | 164° |
| 2026-05-08 14:27 | 42.81590 | -6.18598 | 24537 ft | 388 kts | 164° |
| 2026-05-08 14:27 | 42.79012 | -6.17462 | 24933 ft | 391 kts | 164° |
| 2026-05-08 14:27 | 42.76424 | -6.16320 | 25307 ft | 393 kts | 164° |
| 2026-05-08 14:28 | 42.73809 | -6.15172 | 25681 ft | 395 kts | 164° |
| 2026-05-08 14:28 | 42.71179 | -6.14029 | 26083 ft | 398 kts | 165° |
| 2026-05-08 14:28 | 42.68533 | -6.12887 | 26451 ft | 400 kts | 164° |
| 2026-05-08 14:28 | 42.65870 | -6.11742 | 26812 ft | 403 kts | 165° |
| 2026-05-08 14:29 | 42.63197 | -6.10599 | 27173 ft | 405 kts | 165° |
| 2026-05-08 14:29 | 42.60499 | -6.09443 | 27525 ft | 407 kts | 165° |
| 2026-05-08 14:29 | 42.57793 | -6.08282 | 27849 ft | 409 kts | 164° |
| 2026-05-08 14:29 | 42.55077 | -6.07115 | 28219 ft | 411 kts | 164° |
| 2026-05-08 14:30 | 42.52345 | -6.05941 | 28555 ft | 413 kts | 164° |
| 2026-05-08 14:30 | 42.49602 | -6.04760 | 28885 ft | 415 kts | 164° |
| 2026-05-08 14:30 | 42.46843 | -6.03576 | 29197 ft | 417 kts | 164° |
| 2026-05-08 14:30 | 42.44067 | -6.02387 | 29476 ft | 420 kts | 166° |
| 2026-05-08 14:31 | 42.41272 | -6.01192 | 29715 ft | 423 kts | 166° |
| 2026-05-08 14:31 | 42.38459 | -5.99985 | 29976 ft | 425 kts | 166° |
| 2026-05-08 14:31 | 42.35631 | -5.98773 | 30211 ft | 428 kts | 166° |
| 2026-05-08 14:32 | 42.29926 | -5.96346 | 30705 ft | 432 kts | 166° |
| 2026-05-08 14:32 | 42.27059 | -5.95128 | 30922 ft | 433 kts | 166° |
| 2026-05-08 14:32 | 42.24175 | -5.93901 | 31123 ft | 435 kts | 167° |
| 2026-05-08 14:32 | 42.21290 | -5.92674 | 31400 ft | 435 kts | 167° |
| 2026-05-08 14:33 | 42.18402 | -5.91444 | 31680 ft | 435 kts | 167° |
| 2026-05-08 14:33 | 42.15519 | -5.90215 | 31960 ft | 434 kts | 167° |
| 2026-05-08 14:33 | 42.12633 | -5.88989 | 32240 ft | 434 kts | 167° |
| 2026-05-08 14:33 | 42.09752 | -5.87769 | 32524 ft | 434 kts | 167° |
| 2026-05-08 14:34 | 42.06868 | -5.86548 | 32794 ft | 435 kts | 167° |
| 2026-05-08 14:34 | 42.03980 | -5.85329 | 32885 ft | 437 kts | 168° |
| 2026-05-08 14:34 | 41.98106 | -5.82856 | 32904 ft | 447 kts | 168° |
| 2026-05-08 14:35 | 41.92128 | -5.80342 | 32901 ft | 453 kts | 168° |
| 2026-05-08 14:35 | 41.87082 | -5.78221 | 32901 ft | 454 kts | 168° |
| 2026-05-08 14:36 | 41.81052 | -5.75686 | 32898 ft | 453 kts | 168° |
| 2026-05-08 14:36 | 41.75034 | -5.73156 | 32897 ft | 453 kts | 168° |
| 2026-05-08 14:37 | 41.69019 | -5.70634 | 32882 ft | 453 kts | 168° |
| 2026-05-08 14:37 | 41.63002 | -5.68123 | 32863 ft | 454 kts | 169° |
| 2026-05-08 14:38 | 41.56968 | -5.65549 | 32869 ft | 458 kts | 164° |
| 2026-05-08 14:38 | 41.54118 | -5.63565 | 32876 ft | 469 kts | 153° |
| 2026-05-08 14:38 | 41.51562 | -5.60797 | 32881 ft | 479 kts | 141° |
| 2026-05-08 14:39 | 41.47456 | -5.53648 | 32884 ft | 488 kts | 131° |
| 2026-05-08 14:39 | 41.43534 | -5.46331 | 32879 ft | 488 kts | 131° |
| 2026-05-08 14:40 | 41.39569 | -5.38998 | 32871 ft | 488 kts | 132° |
| 2026-05-08 14:40 | 41.35584 | -5.31659 | 32858 ft | 489 kts | 132° |
| 2026-05-08 14:41 | 41.31572 | -5.24282 | 32875 ft | 489 kts | 132° |
| 2026-05-08 14:41 | 41.27602 | -5.16988 | 32883 ft | 490 kts | 132° |
| 2026-05-08 14:42 | 41.23604 | -5.09657 | 32888 ft | 490 kts | 132° |
| 2026-05-08 14:42 | 41.19603 | -5.02340 | 32875 ft | 490 kts | 133° |
| 2026-05-08 14:43 | 41.15594 | -4.95037 | 32868 ft | 490 kts | 132° |
| 2026-05-08 14:43 | 41.11577 | -4.87733 | 32874 ft | 490 kts | 132° |
| 2026-05-08 14:44 | 41.07559 | -4.80432 | 32880 ft | 490 kts | 132° |
| 2026-05-08 14:44 | 41.03531 | -4.73144 | 32884 ft | 490 kts | 133° |
| 2026-05-08 14:45 | 40.99501 | -4.65874 | 32881 ft | 490 kts | 133° |
| 2026-05-08 14:45 | 40.95462 | -4.58608 | 32889 ft | 490 kts | 133° |
| 2026-05-08 14:46 | 40.91430 | -4.51357 | 32883 ft | 490 kts | 133° |
| 2026-05-08 14:46 | 40.87396 | -4.44109 | 32889 ft | 490 kts | 133° |
| 2026-05-08 14:47 | 40.83351 | -4.36869 | 32895 ft | 490 kts | 133° |
| 2026-05-08 14:47 | 40.79297 | -4.29643 | 32893 ft | 490 kts | 133° |
| 2026-05-08 14:48 | 40.75243 | -4.22430 | 32922 ft | 490 kts | 133° |
| 2026-05-08 14:48 | 40.71187 | -4.15212 | 32934 ft | 490 kts | 133° |
| 2026-05-08 14:49 | 40.67128 | -4.08001 | 32932 ft | 490 kts | 133° |
| 2026-05-08 14:49 | 40.63061 | -4.00800 | 32935 ft | 489 kts | 133° |
| 2026-05-08 14:50 | 40.58985 | -3.93624 | 32943 ft | 489 kts | 134° |
| 2026-05-08 14:50 | 40.54913 | -3.86457 | 32946 ft | 489 kts | 134° |
| 2026-05-08 14:51 | 40.50842 | -3.79304 | 32918 ft | 489 kts | 133° |
| 2026-05-08 14:51 | 40.46763 | -3.72152 | 32923 ft | 489 kts | 133° |
| 2026-05-08 14:52 | 40.40625 | -3.61433 | 32906 ft | 490 kts | 134° |
| 2026-05-08 14:53 | 40.36527 | -3.54291 | 32911 ft | 490 kts | 134° |
| 2026-05-08 14:53 | 40.32426 | -3.47145 | 32917 ft | 491 kts | 134° |
| 2026-05-08 14:54 | 40.28303 | -3.40005 | 32893 ft | 491 kts | 134° |
| 2026-05-08 14:54 | 40.24806 | -3.32218 | 32905 ft | 506 kts | 116° |
| 2026-05-08 14:55 | 40.22768 | -3.23333 | 32908 ft | 511 kts | 111° |
| 2026-05-08 14:55 | 40.20800 | -3.14373 | 32905 ft | 512 kts | 111° |
| 2026-05-08 14:56 | 40.18816 | -3.05421 | 32914 ft | 513 kts | 111° |
| 2026-05-08 14:56 | 40.16813 | -2.96453 | 32916 ft | 515 kts | 111° |
| 2026-05-08 14:57 | 40.14803 | -2.87466 | 32927 ft | 515 kts | 111° |
| 2026-05-08 14:57 | 40.12797 | -2.78506 | 32932 ft | 511 kts | 111° |
| 2026-05-08 14:57 | 40.11820 | -2.74124 | 32939 ft | 492 kts | 112° |
| 2026-05-08 14:58 | 40.10874 | -2.69885 | 32944 ft | 482 kts | 112° |
| 2026-05-08 14:58 | 40.08992 | -2.61541 | 32947 ft | 478 kts | 112° |
| 2026-05-08 14:59 | 40.07098 | -2.53241 | 32293 ft | 477 kts | 112° |
| 2026-05-08 14:59 | 40.05210 | -2.44996 | 31152 ft | 472 kts | 112° |
| 2026-05-08 14:59 | 40.04277 | -2.40910 | 30585 ft | 470 kts | 112° |
| 2026-05-08 15:00 | 40.03343 | -2.36828 | 30022 ft | 468 kts | 112° |
| 2026-05-08 15:00 | 40.02411 | -2.32766 | 29408 ft | 465 kts | 112° |
| 2026-05-08 15:00 | 40.01488 | -2.28740 | 28863 ft | 461 kts | 112° |
| 2026-05-08 15:00 | 40.00574 | -2.24759 | 28335 ft | 457 kts | 112° |
| 2026-05-08 15:01 | 39.99665 | -2.20814 | 27833 ft | 452 kts | 112° |
| 2026-05-08 15:01 | 39.98625 | -2.16989 | 27357 ft | 441 kts | 121° |
| 2026-05-08 15:01 | 39.97226 | -2.13496 | 26929 ft | 431 kts | 126° |
| 2026-05-08 15:01 | 39.95786 | -2.10092 | 26483 ft | 427 kts | 126° |
| 2026-05-08 15:02 | 39.94358 | -2.06718 | 26045 ft | 423 kts | 126° |
| 2026-05-08 15:02 | 39.92942 | -2.03368 | 25612 ft | 419 kts | 126° |
| 2026-05-08 15:02 | 39.91541 | -2.00057 | 25153 ft | 417 kts | 126° |
| 2026-05-08 15:02 | 39.90142 | -1.96763 | 24709 ft | 414 kts | 126° |
| 2026-05-08 15:03 | 39.88762 | -1.93532 | 24237 ft | 413 kts | 126° |
| 2026-05-08 15:03 | 39.87371 | -1.90277 | 23751 ft | 411 kts | 126° |
| 2026-05-08 15:03 | 39.85983 | -1.87024 | 23250 ft | 410 kts | 126° |
| 2026-05-08 15:03 | 39.84607 | -1.83792 | 22766 ft | 407 kts | 126° |
| 2026-05-08 15:04 | 39.83241 | -1.80588 | 22277 ft | 404 kts | 126° |
| 2026-05-08 15:04 | 39.81883 | -1.77408 | 21821 ft | 401 kts | 126° |
| 2026-05-08 15:04 | 39.80533 | -1.74248 | 21354 ft | 399 kts | 126° |
| 2026-05-08 15:04 | 39.79188 | -1.71106 | 20872 ft | 396 kts | 126° |
| 2026-05-08 15:05 | 39.77853 | -1.67987 | 20440 ft | 393 kts | 126° |
| 2026-05-08 15:05 | 39.76526 | -1.64886 | 19990 ft | 391 kts | 126° |
| 2026-05-08 15:05 | 39.75202 | -1.61803 | 19542 ft | 390 kts | 126° |
| 2026-05-08 15:05 | 39.73883 | -1.58735 | 19080 ft | 389 kts | 126° |
| 2026-05-08 15:06 | 39.72565 | -1.55676 | 18626 ft | 387 kts | 126° |
| 2026-05-08 15:06 | 39.71248 | -1.52623 | 18140 ft | 387 kts | 125° |
| 2026-05-08 15:06 | 39.69938 | -1.49589 | 17672 ft | 384 kts | 125° |
| 2026-05-08 15:06 | 39.68634 | -1.46569 | 17223 ft | 382 kts | 125° |
| 2026-05-08 15:07 | 39.67342 | -1.43579 | 16781 ft | 379 kts | 124° |
| 2026-05-08 15:07 | 39.66053 | -1.40597 | 16393 ft | 376 kts | 124° |
| 2026-05-08 15:07 | 39.64777 | -1.37649 | 15955 ft | 374 kts | 124° |
| 2026-05-08 15:07 | 39.63510 | -1.34720 | 15507 ft | 372 kts | 124° |
| 2026-05-08 15:08 | 39.62249 | -1.31814 | 15093 ft | 370 kts | 124° |
| 2026-05-08 15:08 | 39.61416 | -1.29898 | 14870 ft | 367 kts | 124° |
| 2026-05-08 15:08 | 39.59756 | -1.26078 | 14383 ft | 362 kts | 123° |
| 2026-05-08 15:08 | 39.58520 | -1.23242 | 13974 ft | 360 kts | 123° |
| 2026-05-08 15:09 | 39.57289 | -1.20423 | 13572 ft | 358 kts | 123° |
| 2026-05-08 15:09 | 39.56073 | -1.17630 | 12936 ft | 353 kts | 122° |
| 2026-05-08 15:09 | 39.55074 | -1.14782 | 12451 ft | 343 kts | 109° |
| 2026-05-08 15:09 | 39.54627 | -1.11790 | 12047 ft | 336 kts | 99° |
| 2026-05-08 15:10 | 39.54349 | -1.08784 | 11634 ft | 336 kts | 98° |
| 2026-05-08 15:10 | 39.54073 | -1.05805 | 11423 ft | 328 kts | 98° |
| 2026-05-08 15:10 | 39.53804 | -1.02906 | 11045 ft | 325 kts | 98° |
| 2026-05-08 15:10 | 39.53524 | -0.99947 | 10402 ft | 334 kts | 98° |
| 2026-05-08 15:11 | 39.53238 | -0.96960 | 9952 ft | 334 kts | 98° |
| 2026-05-08 15:11 | 39.52957 | -0.93982 | 9540 ft | 331 kts | 98° |
| 2026-05-08 15:11 | 39.52684 | -0.91055 | 9196 ft | 326 kts | 98° |
| 2026-05-08 15:11 | 39.52626 | -0.88131 | 8671 ft | 327 kts | 79° |
| 2026-05-08 15:12 | 39.53560 | -0.85499 | 8208 ft | 321 kts | 48° |
| 2026-05-08 15:12 | 39.55295 | -0.83908 | 7910 ft | 297 kts | 17° |
| 2026-05-08 15:12 | 39.57245 | -0.83670 | 7454 ft | 281 kts | 352° |
| 2026-05-08 15:12 | 39.59217 | -0.83799 | 6698 ft | 282 kts | 10° |
| 2026-05-08 15:13 | 39.60938 | -0.82763 | 6041 ft | 276 kts | 46° |
| 2026-05-08 15:13 | 39.61857 | -0.80717 | 5580 ft | 259 kts | 80° |
| 2026-05-08 15:13 | 39.61676 | -0.78500 | 5114 ft | 243 kts | 120° |
| 2026-05-08 15:13 | 39.60567 | -0.77006 | 4810 ft | 226 kts | 148° |
| 2026-05-08 15:14 | 39.59371 | -0.75762 | 4516 ft | 221 kts | 124° |
| 2026-05-08 15:14 | 39.58684 | -0.73997 | 4244 ft | 219 kts | 116° |
| 2026-05-08 15:14 | 39.58039 | -0.72215 | 3958 ft | 218 kts | 117° |
| 2026-05-08 15:14 | 39.57386 | -0.70470 | 3666 ft | 211 kts | 117° |
| 2026-05-08 15:15 | 39.56751 | -0.68790 | 3404 ft | 207 kts | 117° |
| 2026-05-08 15:15 | 39.56119 | -0.67117 | 3141 ft | 206 kts | 117° |
| 2026-05-08 15:15 | 39.55505 | -0.65493 | 2867 ft | 195 kts | 117° |
| 2026-05-08 15:15 | 39.54927 | -0.63967 | 2600 ft | 182 kts | 116° |
| 2026-05-08 15:16 | 39.54395 | -0.62561 | 2359 ft | 164 kts | 114° |
| 2026-05-08 15:16 | 39.53913 | -0.61289 | 2156 ft | 151 kts | 114° |
| 2026-05-08 15:16 | 39.53458 | -0.60088 | 1976 ft | 148 kts | 115° |
| 2026-05-08 15:16 | 39.53014 | -0.58917 | 1778 ft | 144 kts | 116° |
| 2026-05-08 15:17 | 39.52568 | -0.57743 | 1581 ft | 146 kts | 115° |
| 2026-05-08 15:17 | 39.52128 | -0.56577 | 1366 ft | 144 kts | 115° |
| 2026-05-08 15:17 | 39.51692 | -0.55434 | 1179 ft | 143 kts | 115° |
| 2026-05-08 15:17 | 39.51253 | -0.54271 | 1026 ft | 142 kts | 116° |
| 2026-05-08 15:18 | 39.50815 | -0.53120 | 825 ft | 141 kts | 114° |
| 2026-05-08 15:18 | 39.50385 | -0.51987 | 622 ft | 141 kts | 114° |
| 2026-05-08 15:18 | 39.49949 | -0.50844 | 417 ft | 141 kts | 113° |
| 2026-05-08 15:18 | 39.49519 | -0.49715 | 239 ft | 135 kts | 114° |
| 2026-05-08 15:19 | 39.49168 | -0.48782 | 220 ft | 92 kts | 116° |
| 2026-05-08 15:19 | 39.48962 | -0.48242 | 208 ft | 42 kts | 116° |
| 2026-05-08 15:19 | 39.48850 | -0.47946 | 207 ft | 34 kts | 116° |
| 2026-05-08 15:19 | 39.48747 | -0.47676 | 201 ft | 33 kts | 116° |
| 2026-05-08 15:20 | 39.48651 | -0.47411 | 195 ft | 26 kts | 104° |
| 2026-05-08 15:20 | 39.48666 | -0.47249 | 198 ft | 12 kts | 58° |
| 2026-05-08 15:20 | 39.48703 | -0.47199 | 196 ft | 12 kts | 37° |
| 2026-05-08 15:20 | 39.48782 | -0.47182 | 193 ft | 9 kts | 344° |
| 2026-05-08 15:21 | 39.48814 | -0.47201 | 191 ft | 4 kts | 335° |
| 2026-05-08 15:21 | 39.48849 | -0.47218 | 189 ft | 7 kts | 348° |
| 2026-05-08 15:21 | 39.48879 | -0.47186 | 200 ft | 7 kts | 65° |
| 2026-05-08 15:21 | 39.48918 | -0.47136 | 189 ft | 10 kts | 357° |
| 2026-05-08 15:22 | 39.48967 | -0.47179 | 195 ft | 3 kts | 25° |
| 2026-05-08 15:22 | 39.48991 | -0.47171 | 188 ft | 3 kts | 14° |
| 2026-05-08 15:22 | 39.48993 | -0.47170 | 191 ft | 0 kts | 14° |